Tuesday, November 21, 2017, 10:45 AM EST
Back to Local

KRME, Griffiss Airfield

Location: Rome, NY, United States Lat: 43.233
Local Time: 10:45 AM EST (15:45 GMT) Lon: -75.4
Time Zone: US/Eastern Elev: 505 ft

Show me the last for .
Show Decoded

2017-11-21 09:53 METAR KRME 211453Z 16008KT 10SM CLR 07/M03 A2991 RMK AO2 SLP130 T00671033 58015
                 =
2017-11-21 08:53 METAR KRME 211353Z 08007KT 10SM CLR 05/M04 A2992 RMK AO2 SLP136 T00501044 =
2017-11-21 07:53 METAR KRME 211253Z 10010KT 10SM CLR 02/M04 A2994 RMK AO2 SLP142 T00221044 =
2017-11-21 06:53 METAR KRME 211153Z 10009KT 10SM CLR 01/M05 A2995 RMK AO2 SLP146 70001 T00111050
                 10011 20000 55004 =
2017-11-21 05:53 METAR KRME 211053Z AUTO 09010KT 10SM CLR 01/M04 A2995 RMK AO2 SLP146 T00061044 =
2017-11-21 04:53 METAR KRME 210953Z AUTO 10010KT 10SM CLR 01/M04 A2996 RMK AO2 SLP148 T00061044 =
2017-11-21 03:53 METAR KRME 210853Z AUTO 09008KT 10SM CLR 01/M04 A2997 RMK AO2 SLP151 T00061039
                 58006 =
2017-11-21 02:53 METAR KRME 210753Z AUTO 10008KT 10SM CLR 00/M04 A2998 RMK AO2 SLP156 T00001039 =
2017-11-21 01:53 METAR KRME 210653Z AUTO 10008KT 10SM CLR 00/M04 A2998 RMK AO2 SLP157 T00001039 =
2017-11-21 00:53 METAR KRME 210553Z AUTO 09006KT 10SM CLR 00/M03 A2998 RMK AO2 SLP157 T00001033
                 10017 20000 56005 =
2017-11-20 23:53 METAR KRME 210453Z AUTO 08006KT 10SM CLR 00/M03 A2998 RMK AO2 SLP157 T00001028
                 400171039 =
2017-11-20 22:53 METAR KRME 210353Z AUTO 08006KT 10SM CLR 00/M02 A3000 RMK AO2 SLP161 T00001022 =
2017-11-20 21:53 METAR KRME 210253Z AUTO 08006KT 10SM CLR 00/M02 A3000 RMK AO2 SLP163 T00001017
                 58002 =
2017-11-20 20:53 METAR KRME 210153Z 10006KT 10SM OVC046 01/M01 A3000 RMK AO2 SLP164 T00111006 =
2017-11-20 19:53 METAR KRME 210053Z 09003KT 10SM OVC042 01/M01 A3001 RMK AO2 SLP166 T00061006 =
2017-11-20 18:53 METAR KRME 202353Z 00000KT 10SM BKN034 OVC046 01/M01 A3001 RMK AO2 SLP166 60000
                 T00111006 10017 20006 51015 =
2017-11-20 18:36 METAR KRME 202336Z 00000KT 10SM OVC030 02/M01 A3001 RMK AO2 T00171006 =
2017-11-20 17:53 METAR KRME 202253Z 25005KT 10SM BKN024 OVC029 02/M01 A3000 RMK AO2 SLP164
                 T00171011 =
2017-11-20 16:53 METAR KRME 202153Z 25007KT 10SM OVC027 02/M02 A2999 RMK AO2 UPB29E46 SLP160
                 P0000 T00171017 =
2017-11-20 16:43 METAR KRME 202143Z 25008KT 10SM UP BKN029 OVC035 02/M02 A2999 RMK AO2 UPB29
                 P0000 T00171022 =
2017-11-20 15:53 METAR KRME 202053Z 26010G15KT 10SM OVC040 01/M03 A2996 RMK AO2 SNB24E34 SLP150
                 P0000 60000 T00111028 53009 =
2017-11-20 14:53 METAR KRME 201953Z 26011KT 10SM BKN045 OVC055 01/M03 A2995 RMK AO2 SLP145
                 T00111033 =
2017-11-20 13:53 METAR KRME 201853Z 26012G20KT 10SM FEW024 BKN036 OVC070 01/M03 A2994 RMK AO2
                 SLP143 T00061028 =
2017-11-20 12:53 METAR KRME 201753Z 27013G26KT 10SM OVC085 02/M04 A2993 RMK AO2 PK WND 25026/1744
                 SLP140 60001 T00171039 10017 21039 56009 =
2017-11-20 11:53 METAR KRME 201653Z 27012G21KT 10SM CLR 01/M05 A2994 RMK AO2 SLP143 T00111050 =
2017-11-20 10:53 METAR KRME 201553Z 00000KT 10SM SCT033 BKN045 BKN070 M01/M04 A2995 RMK AO2 SNE20
                 SLP145 P0000 T10111039 =

Support USWX by starting your Amazon purchase here.